sensor_id;sensor_type;location;lat;lon;timestamp;P1;durP1;ratioP1;P2;durP2;ratioP2
51560;SDS011;37654;51.262;17.058;2023-03-12T00:00:06;25.73;;;11.20;;
51560;SDS011;37654;51.262;17.058;2023-03-12T00:02:35;16.95;;;8.85;;
51560;SDS011;37654;51.262;17.058;2023-03-12T00:05:00;18.50;;;10.10;;
51560;SDS011;37654;51.262;17.058;2023-03-12T00:07:26;17.05;;;9.00;;
51560;SDS011;37654;51.262;17.058;2023-03-12T00:09:51;16.98;;;8.80;;
51560;SDS011;37654;51.262;17.058;2023-03-12T00:12:16;19.90;;;9.65;;
51560;SDS011;37654;51.262;17.058;2023-03-12T00:14:41;21.17;;;9.90;;
51560;SDS011;37654;51.262;17.058;2023-03-12T00:17:07;20.17;;;9.15;;
51560;SDS011;37654;51.262;17.058;2023-03-12T00:19:32;26.02;;;12.43;;
51560;SDS011;37654;51.262;17.058;2023-03-12T00:21:57;23.83;;;12.75;;
51560;SDS011;37654;51.262;17.058;2023-03-12T00:24:22;29.88;;;12.00;;
51560;SDS011;37654;51.262;17.058;2023-03-12T00:26:48;23.48;;;10.25;;
51560;SDS011;37654;51.262;17.058;2023-03-12T00:29:13;19.20;;;9.88;;
51560;SDS011;37654;51.262;17.058;2023-03-12T00:31:38;19.95;;;10.38;;
51560;SDS011;37654;51.262;17.058;2023-03-12T00:34:04;21.85;;;11.05;;
51560;SDS011;37654;51.262;17.058;2023-03-12T00:36:30;19.02;;;10.07;;
51560;SDS011;37654;51.262;17.058;2023-03-12T00:38:56;23.23;;;11.65;;
51560;SDS011;37654;51.262;17.058;2023-03-12T00:41:21;21.42;;;10.88;;
51560;SDS011;37654;51.262;17.058;2023-03-12T00:43:47;19.40;;;10.25;;
51560;SDS011;37654;51.262;17.058;2023-03-12T00:46:13;22.58;;;11.27;;
51560;SDS011;37654;51.262;17.058;2023-03-12T00:48:38;22.65;;;10.75;;
51560;SDS011;37654;51.262;17.058;2023-03-12T00:51:04;21.30;;;11.27;;
51560;SDS011;37654;51.262;17.058;2023-03-12T00:53:29;28.73;;;12.60;;
51560;SDS011;37654;51.262;17.058;2023-03-12T00:55:54;22.67;;;12.18;;
51560;SDS011;37654;51.262;17.058;2023-03-12T00:58:19;22.35;;;12.15;;
51560;SDS011;37654;51.262;17.058;2023-03-12T01:00:45;20.75;;;10.90;;
51560;SDS011;37654;51.262;17.058;2023-03-12T01:03:10;21.58;;;11.43;;
51560;SDS011;37654;51.262;17.058;2023-03-12T01:05:35;20.02;;;10.85;;
51560;SDS011;37654;51.262;17.058;2023-03-12T01:08:04;19.55;;;10.63;;
51560;SDS011;37654;51.262;17.058;2023-03-12T01:10:30;21.25;;;11.68;;
51560;SDS011;37654;51.262;17.058;2023-03-12T01:12:55;18.15;;;10.48;;
51560;SDS011;37654;51.262;17.058;2023-03-12T01:15:20;26.63;;;11.38;;
51560;SDS011;37654;51.262;17.058;2023-03-12T01:17:46;21.15;;;11.02;;
51560;SDS011;37654;51.262;17.058;2023-03-12T01:20:11;22.17;;;11.43;;
51560;SDS011;37654;51.262;17.058;2023-03-12T01:22:36;20.48;;;10.70;;
51560;SDS011;37654;51.262;17.058;2023-03-12T01:25:02;18.95;;;11.27;;
51560;SDS011;37654;51.262;17.058;2023-03-12T01:27:27;17.02;;;10.43;;
51560;SDS011;37654;51.262;17.058;2023-03-12T01:29:53;17.92;;;9.93;;
51560;SDS011;37654;51.262;17.058;2023-03-12T01:32:18;19.52;;;10.23;;
51560;SDS011;37654;51.262;17.058;2023-03-12T01:34:43;17.70;;;9.70;;
51560;SDS011;37654;51.262;17.058;2023-03-12T01:37:09;18.00;;;9.40;;
51560;SDS011;37654;51.262;17.058;2023-03-12T01:39:34;19.48;;;8.95;;
51560;SDS011;37654;51.262;17.058;2023-03-12T01:42:00;18.10;;;9.55;;
51560;SDS011;37654;51.262;17.058;2023-03-12T01:44:26;19.15;;;9.52;;
51560;SDS011;37654;51.262;17.058;2023-03-12T01:46:51;16.67;;;8.38;;
51560;SDS011;37654;51.262;17.058;2023-03-12T01:49:18;19.90;;;10.27;;
51560;SDS011;37654;51.262;17.058;2023-03-12T01:54:19;19.42;;;8.98;;
51560;SDS011;37654;51.262;17.058;2023-03-12T01:56:46;18.80;;;9.20;;
51560;SDS011;37654;51.262;17.058;2023-03-12T01:59:22;16.05;;;7.72;;
51560;SDS011;37654;51.262;17.058;2023-03-12T02:01:48;14.82;;;8.10;;
51560;SDS011;37654;51.262;17.058;2023-03-12T02:04:14;17.38;;;8.80;;
51560;SDS011;37654;51.262;17.058;2023-03-12T02:09:15;18.48;;;8.60;;
51560;SDS011;37654;51.262;17.058;2023-03-12T02:11:43;20.05;;;8.93;;
51560;SDS011;37654;51.262;17.058;2023-03-12T02:14:09;19.33;;;9.48;;
51560;SDS011;37654;51.262;17.058;2023-03-12T02:16:34;18.40;;;8.80;;
51560;SDS011;37654;51.262;17.058;2023-03-12T02:18:59;15.95;;;8.57;;
51560;SDS011;37654;51.262;17.058;2023-03-12T02:21:27;19.40;;;8.20;;
51560;SDS011;37654;51.262;17.058;2023-03-12T02:26:27;17.52;;;8.52;;
51560;SDS011;37654;51.262;17.058;2023-03-12T02:28:53;18.05;;;7.95;;
51560;SDS011;37654;51.262;17.058;2023-03-12T02:31:20;16.90;;;7.60;;
51560;SDS011;37654;51.262;17.058;2023-03-12T02:33:46;15.55;;;7.78;;
51560;SDS011;37654;51.262;17.058;2023-03-12T02:36:12;14.13;;;7.63;;
51560;SDS011;37654;51.262;17.058;2023-03-12T02:38:39;16.30;;;7.45;;
51560;SDS011;37654;51.262;17.058;2023-03-12T02:41:47;15.35;;;7.18;;
51560;SDS011;37654;51.262;17.058;2023-03-12T02:43:57;15.45;;;7.53;;
51560;SDS011;37654;51.262;17.058;2023-03-12T02:46:24;22.23;;;7.72;;
51560;SDS011;37654;51.262;17.058;2023-03-12T02:48:50;13.63;;;7.43;;
51560;SDS011;37654;51.262;17.058;2023-03-12T02:51:16;13.55;;;6.82;;
51560;SDS011;37654;51.262;17.058;2023-03-12T02:53:41;15.20;;;7.18;;
51560;SDS011;37654;51.262;17.058;2023-03-12T02:56:07;13.52;;;6.35;;
51560;SDS011;37654;51.262;17.058;2023-03-12T02:58:32;19.38;;;7.57;;
51560;SDS011;37654;51.262;17.058;2023-03-12T03:00:57;11.95;;;5.35;;
51560;SDS011;37654;51.262;17.058;2023-03-12T03:03:23;11.38;;;6.43;;
51560;SDS011;37654;51.262;17.058;2023-03-12T03:05:48;13.45;;;6.72;;
51560;SDS011;37654;51.262;17.058;2023-03-12T03:08:13;15.45;;;6.88;;
51560;SDS011;37654;51.262;17.058;2023-03-12T03:10:38;13.57;;;5.00;;
51560;SDS011;37654;51.262;17.058;2023-03-12T03:13:04;14.98;;;5.88;;
51560;SDS011;37654;51.262;17.058;2023-03-12T03:15:29;13.35;;;5.38;;
51560;SDS011;37654;51.262;17.058;2023-03-12T03:17:54;12.48;;;5.43;;
51560;SDS011;37654;51.262;17.058;2023-03-12T03:20:20;10.57;;;4.97;;
51560;SDS011;37654;51.262;17.058;2023-03-12T03:22:46;12.65;;;5.53;;
51560;SDS011;37654;51.262;17.058;2023-03-12T03:25:12;13.05;;;5.45;;
51560;SDS011;37654;51.262;17.058;2023-03-12T03:27:37;14.77;;;6.63;;
51560;SDS011;37654;51.262;17.058;2023-03-12T03:30:03;16.55;;;6.38;;
51560;SDS011;37654;51.262;17.058;2023-03-12T03:32:28;10.07;;;6.07;;
51560;SDS011;37654;51.262;17.058;2023-03-12T03:34:53;11.52;;;4.93;;
51560;SDS011;37654;51.262;17.058;2023-03-12T03:37:19;15.05;;;6.28;;
51560;SDS011;37654;51.262;17.058;2023-03-12T03:39:44;13.55;;;5.60;;
51560;SDS011;37654;51.262;17.058;2023-03-12T03:42:09;11.85;;;5.05;;
51560;SDS011;37654;51.262;17.058;2023-03-12T03:44:34;11.93;;;5.25;;
51560;SDS011;37654;51.262;17.058;2023-03-12T03:47:00;14.48;;;5.72;;
51560;SDS011;37654;51.262;17.058;2023-03-12T03:49:26;12.35;;;5.43;;
51560;SDS011;37654;51.262;17.058;2023-03-12T03:51:51;11.68;;;4.80;;
51560;SDS011;37654;51.262;17.058;2023-03-12T03:54:17;10.80;;;4.90;;
51560;SDS011;37654;51.262;17.058;2023-03-12T03:56:42;12.20;;;5.28;;
51560;SDS011;37654;51.262;17.058;2023-03-12T03:59:08;16.00;;;5.93;;
51560;SDS011;37654;51.262;17.058;2023-03-12T04:01:34;15.40;;;6.88;;
51560;SDS011;37654;51.262;17.058;2023-03-12T04:04:00;14.80;;;6.15;;
51560;SDS011;37654;51.262;17.058;2023-03-12T04:06:26;13.10;;;5.28;;
51560;SDS011;37654;51.262;17.058;2023-03-12T04:08:51;8.18;;;4.25;;
51560;SDS011;37654;51.262;17.058;2023-03-12T04:11:18;10.88;;;4.35;;
51560;SDS011;37654;51.262;17.058;2023-03-12T04:13:43;10.35;;;4.57;;
51560;SDS011;37654;51.262;17.058;2023-03-12T04:16:09;8.50;;;4.35;;
51560;SDS011;37654;51.262;17.058;2023-03-12T04:18:34;13.55;;;4.82;;
51560;SDS011;37654;51.262;17.058;2023-03-12T04:21:00;10.38;;;4.63;;
51560;SDS011;37654;51.262;17.058;2023-03-12T04:23:26;11.98;;;4.32;;
51560;SDS011;37654;51.262;17.058;2023-03-12T04:25:51;11.00;;;4.00;;
51560;SDS011;37654;51.262;17.058;2023-03-12T04:28:16;7.95;;;3.85;;
51560;SDS011;37654;51.262;17.058;2023-03-12T04:30:42;12.27;;;3.75;;
51560;SDS011;37654;51.262;17.058;2023-03-12T04:33:07;12.05;;;4.00;;
51560;SDS011;37654;51.262;17.058;2023-03-12T04:35:32;8.35;;;4.20;;
51560;SDS011;37654;51.262;17.058;2023-03-12T04:37:59;11.82;;;4.03;;
51560;SDS011;37654;51.262;17.058;2023-03-12T04:40:24;11.18;;;3.30;;
51560;SDS011;37654;51.262;17.058;2023-03-12T04:42:50;9.32;;;3.25;;
51560;SDS011;37654;51.262;17.058;2023-03-12T04:45:15;6.85;;;3.28;;
51560;SDS011;37654;51.262;17.058;2023-03-12T04:47:40;6.50;;;3.05;;
51560;SDS011;37654;51.262;17.058;2023-03-12T04:50:06;7.68;;;3.53;;
51560;SDS011;37654;51.262;17.058;2023-03-12T04:52:31;7.93;;;3.30;;
51560;SDS011;37654;51.262;17.058;2023-03-12T04:54:56;7.68;;;3.45;;
51560;SDS011;37654;51.262;17.058;2023-03-12T04:57:23;10.05;;;4.18;;
51560;SDS011;37654;51.262;17.058;2023-03-12T04:59:48;10.65;;;4.60;;
51560;SDS011;37654;51.262;17.058;2023-03-12T05:02:14;8.63;;;4.28;;
51560;SDS011;37654;51.262;17.058;2023-03-12T05:04:39;8.82;;;3.83;;
51560;SDS011;37654;51.262;17.058;2023-03-12T05:07:04;10.27;;;3.95;;
51560;SDS011;37654;51.262;17.058;2023-03-12T05:09:29;10.55;;;3.75;;
51560;SDS011;37654;51.262;17.058;2023-03-12T05:11:55;10.15;;;3.80;;
51560;SDS011;37654;51.262;17.058;2023-03-12T05:14:20;8.98;;;4.07;;
51560;SDS011;37654;51.262;17.058;2023-03-12T05:16:45;13.13;;;5.40;;
51560;SDS011;37654;51.262;17.058;2023-03-12T05:19:11;6.43;;;3.40;;
51560;SDS011;37654;51.262;17.058;2023-03-12T05:21:37;9.30;;;3.83;;
51560;SDS011;37654;51.262;17.058;2023-03-12T05:24:03;10.50;;;4.03;;
51560;SDS011;37654;51.262;17.058;2023-03-12T05:26:29;9.70;;;4.15;;
51560;SDS011;37654;51.262;17.058;2023-03-12T05:28:58;9.30;;;3.67;;
51560;SDS011;37654;51.262;17.058;2023-03-12T05:31:24;9.75;;;4.20;;
51560;SDS011;37654;51.262;17.058;2023-03-12T05:33:49;11.32;;;5.13;;
51560;SDS011;37654;51.262;17.058;2023-03-12T05:36:15;7.65;;;3.60;;
51560;SDS011;37654;51.262;17.058;2023-03-12T05:38:40;9.85;;;3.92;;
51560;SDS011;37654;51.262;17.058;2023-03-12T05:41:07;10.95;;;3.92;;
51560;SDS011;37654;51.262;17.058;2023-03-12T05:43:32;10.10;;;4.15;;
51560;SDS011;37654;51.262;17.058;2023-03-12T05:46:02;9.93;;;3.72;;
51560;SDS011;37654;51.262;17.058;2023-03-12T05:48:28;8.95;;;3.65;;
51560;SDS011;37654;51.262;17.058;2023-03-12T05:50:53;6.63;;;3.03;;
51560;SDS011;37654;51.262;17.058;2023-03-12T05:53:19;7.65;;;3.50;;
51560;SDS011;37654;51.262;17.058;2023-03-12T05:55:44;14.50;;;3.42;;
51560;SDS011;37654;51.262;17.058;2023-03-12T05:58:09;12.20;;;3.92;;
51560;SDS011;37654;51.262;17.058;2023-03-12T06:00:35;7.97;;;3.75;;
51560;SDS011;37654;51.262;17.058;2023-03-12T06:03:03;9.70;;;3.45;;
51560;SDS011;37654;51.262;17.058;2023-03-12T06:05:28;10.18;;;3.08;;
51560;SDS011;37654;51.262;17.058;2023-03-12T06:07:54;6.63;;;3.25;;
51560;SDS011;37654;51.262;17.058;2023-03-12T06:10:19;8.85;;;3.55;;
51560;SDS011;37654;51.262;17.058;2023-03-12T06:12:44;7.70;;;2.90;;
51560;SDS011;37654;51.262;17.058;2023-03-12T06:15:10;28.30;;;4.25;;
51560;SDS011;37654;51.262;17.058;2023-03-12T06:17:35;6.95;;;2.63;;
51560;SDS011;37654;51.262;17.058;2023-03-12T06:20:00;8.20;;;2.77;;
51560;SDS011;37654;51.262;17.058;2023-03-12T06:22:26;6.35;;;2.80;;
51560;SDS011;37654;51.262;17.058;2023-03-12T06:24:51;6.13;;;2.60;;
51560;SDS011;37654;51.262;17.058;2023-03-12T06:27:16;8.07;;;2.92;;
51560;SDS011;37654;51.262;17.058;2023-03-12T06:29:42;8.57;;;2.67;;
51560;SDS011;37654;51.262;17.058;2023-03-12T06:32:07;6.40;;;2.90;;
51560;SDS011;37654;51.262;17.058;2023-03-12T06:34:33;6.82;;;2.90;;
51560;SDS011;37654;51.262;17.058;2023-03-12T06:36:58;5.57;;;2.55;;
51560;SDS011;37654;51.262;17.058;2023-03-12T06:39:23;5.07;;;2.78;;
51560;SDS011;37654;51.262;17.058;2023-03-12T06:41:49;4.57;;;2.60;;
51560;SDS011;37654;51.262;17.058;2023-03-12T06:44:14;4.57;;;2.50;;
51560;SDS011;37654;51.262;17.058;2023-03-12T06:46:39;6.80;;;2.70;;
51560;SDS011;37654;51.262;17.058;2023-03-12T06:49:05;11.82;;;3.10;;
51560;SDS011;37654;51.262;17.058;2023-03-12T06:51:30;6.32;;;2.88;;
51560;SDS011;37654;51.262;17.058;2023-03-12T06:53:55;4.77;;;2.20;;
51560;SDS011;37654;51.262;17.058;2023-03-12T06:56:21;5.50;;;2.57;;
51560;SDS011;37654;51.262;17.058;2023-03-12T06:58:46;4.93;;;2.55;;
51560;SDS011;37654;51.262;17.058;2023-03-12T07:01:12;7.13;;;2.83;;
51560;SDS011;37654;51.262;17.058;2023-03-12T07:03:37;5.57;;;2.63;;
51560;SDS011;37654;51.262;17.058;2023-03-12T07:06:03;4.93;;;2.57;;
51560;SDS011;37654;51.262;17.058;2023-03-12T07:08:28;4.43;;;2.58;;
51560;SDS011;37654;51.262;17.058;2023-03-12T07:10:55;5.47;;;2.78;;
51560;SDS011;37654;51.262;17.058;2023-03-12T07:13:21;6.05;;;3.05;;
51560;SDS011;37654;51.262;17.058;2023-03-12T07:15:46;6.10;;;2.93;;
51560;SDS011;37654;51.262;17.058;2023-03-12T07:18:11;9.53;;;3.00;;
51560;SDS011;37654;51.262;17.058;2023-03-12T07:20:41;5.00;;;2.40;;
51560;SDS011;37654;51.262;17.058;2023-03-12T07:23:06;3.92;;;2.20;;
51560;SDS011;37654;51.262;17.058;2023-03-12T07:25:36;6.18;;;2.70;;
51560;SDS011;37654;51.262;17.058;2023-03-12T07:28:02;5.68;;;2.42;;
51560;SDS011;37654;51.262;17.058;2023-03-12T07:30:27;6.53;;;2.35;;
51560;SDS011;37654;51.262;17.058;2023-03-12T07:32:57;5.18;;;2.38;;
51560;SDS011;37654;51.262;17.058;2023-03-12T07:35:22;7.30;;;2.93;;
51560;SDS011;37654;51.262;17.058;2023-03-12T07:37:47;5.55;;;2.20;;
51560;SDS011;37654;51.262;17.058;2023-03-12T07:40:13;10.13;;;3.53;;
51560;SDS011;37654;51.262;17.058;2023-03-12T07:42:38;5.97;;;2.83;;
51560;SDS011;37654;51.262;17.058;2023-03-12T07:45:03;5.57;;;2.53;;
51560;SDS011;37654;51.262;17.058;2023-03-12T07:47:29;5.10;;;2.63;;
51560;SDS011;37654;51.262;17.058;2023-03-12T07:49:54;7.75;;;2.65;;
51560;SDS011;37654;51.262;17.058;2023-03-12T07:52:20;9.03;;;2.97;;
51560;SDS011;37654;51.262;17.058;2023-03-12T07:54:46;5.38;;;2.13;;
51560;SDS011;37654;51.262;17.058;2023-03-12T07:57:11;5.73;;;3.07;;
51560;SDS011;37654;51.262;17.058;2023-03-12T07:59:36;4.30;;;2.47;;
51560;SDS011;37654;51.262;17.058;2023-03-12T08:02:02;5.70;;;2.77;;
51560;SDS011;37654;51.262;17.058;2023-03-12T08:04:27;14.17;;;7.43;;
51560;SDS011;37654;51.262;17.058;2023-03-12T08:06:52;9.17;;;4.50;;
51560;SDS011;37654;51.262;17.058;2023-03-12T08:09:17;5.07;;;2.27;;
51560;SDS011;37654;51.262;17.058;2023-03-12T08:11:43;6.90;;;3.27;;
51560;SDS011;37654;51.262;17.058;2023-03-12T08:14:08;17.53;;;9.20;;
51560;SDS011;37654;51.262;17.058;2023-03-12T08:16:33;17.70;;;7.37;;
51560;SDS011;37654;51.262;17.058;2023-03-12T08:18:58;9.90;;;4.97;;
51560;SDS011;37654;51.262;17.058;2023-03-12T08:21:24;16.10;;;10.57;;
51560;SDS011;37654;51.262;17.058;2023-03-12T08:23:49;8.50;;;4.13;;
51560;SDS011;37654;51.262;17.058;2023-03-12T08:26:14;10.13;;;4.40;;
51560;SDS011;37654;51.262;17.058;2023-03-12T08:28:40;5.43;;;3.50;;
51560;SDS011;37654;51.262;17.058;2023-03-12T08:31:05;6.03;;;2.47;;
51560;SDS011;37654;51.262;17.058;2023-03-12T08:33:31;5.57;;;2.50;;
51560;SDS011;37654;51.262;17.058;2023-03-12T08:35:56;6.32;;;3.03;;
51560;SDS011;37654;51.262;17.058;2023-03-12T08:38:21;5.93;;;2.90;;
51560;SDS011;37654;51.262;17.058;2023-03-12T08:40:53;5.13;;;1.93;;
51560;SDS011;37654;51.262;17.058;2023-03-12T08:43:18;3.70;;;2.08;;
51560;SDS011;37654;51.262;17.058;2023-03-12T08:45:43;4.80;;;1.97;;
51560;SDS011;37654;51.262;17.058;2023-03-12T08:48:09;3.33;;;1.70;;
51560;SDS011;37654;51.262;17.058;2023-03-12T08:50:34;4.87;;;2.33;;
51560;SDS011;37654;51.262;17.058;2023-03-12T08:52:59;4.27;;;1.80;;
51560;SDS011;37654;51.262;17.058;2023-03-12T08:55:25;11.88;;;2.30;;
51560;SDS011;37654;51.262;17.058;2023-03-12T08:57:54;5.07;;;1.80;;
51560;SDS011;37654;51.262;17.058;2023-03-12T09:00:20;4.40;;;1.70;;
51560;SDS011;37654;51.262;17.058;2023-03-12T09:02:45;3.38;;;1.65;;
51560;SDS011;37654;51.262;17.058;2023-03-12T09:05:11;4.55;;;1.65;;
51560;SDS011;37654;51.262;17.058;2023-03-12T09:07:37;4.80;;;1.88;;
51560;SDS011;37654;51.262;17.058;2023-03-12T09:10:03;5.10;;;1.80;;
51560;SDS011;37654;51.262;17.058;2023-03-12T09:12:28;3.28;;;1.45;;
51560;SDS011;37654;51.262;17.058;2023-03-12T09:14:53;5.37;;;1.90;;
51560;SDS011;37654;51.262;17.058;2023-03-12T09:17:19;4.63;;;1.83;;
51560;SDS011;37654;51.262;17.058;2023-03-12T09:19:44;5.90;;;1.30;;
51560;SDS011;37654;51.262;17.058;2023-03-12T09:22:09;5.27;;;1.57;;
51560;SDS011;37654;51.262;17.058;2023-03-12T09:24:34;6.17;;;2.43;;
51560;SDS011;37654;51.262;17.058;2023-03-12T09:27:00;6.43;;;2.13;;
51560;SDS011;37654;51.262;17.058;2023-03-12T09:29:25;4.57;;;1.77;;
51560;SDS011;37654;51.262;17.058;2023-03-12T09:31:51;3.35;;;1.70;;
51560;SDS011;37654;51.262;17.058;2023-03-12T09:34:16;7.68;;;2.20;;
51560;SDS011;37654;51.262;17.058;2023-03-12T09:36:42;4.93;;;2.40;;
51560;SDS011;37654;51.262;17.058;2023-03-12T09:39:07;3.30;;;1.40;;
51560;SDS011;37654;51.262;17.058;2023-03-12T09:41:33;4.63;;;1.77;;
51560;SDS011;37654;51.262;17.058;2023-03-12T09:46:45;7.63;;;2.80;;
51560;SDS011;37654;51.262;17.058;2023-03-12T09:49:54;4.18;;;1.85;;
51560;SDS011;37654;51.262;17.058;2023-03-12T09:52:01;3.30;;;1.50;;
51560;SDS011;37654;51.262;17.058;2023-03-12T09:57:18;3.20;;;1.75;;
51560;SDS011;37654;51.262;17.058;2023-03-12T09:59:45;6.38;;;1.33;;
51560;SDS011;37654;51.262;17.058;2023-03-12T10:02:57;10.60;;;3.40;;
51560;SDS011;37654;51.262;17.058;2023-03-12T10:27:58;5.97;;;1.75;;
51560;SDS011;37654;51.262;17.058;2023-03-12T10:30:28;5.05;;;1.40;;
51560;SDS011;37654;51.262;17.058;2023-03-12T10:32:55;5.80;;;1.60;;
51560;SDS011;37654;51.262;17.058;2023-03-12T10:35:22;3.60;;;1.23;;
51560;SDS011;37654;51.262;17.058;2023-03-12T10:37:53;4.25;;;1.55;;
51560;SDS011;37654;51.262;17.058;2023-03-12T10:40:22;4.72;;;1.35;;
51560;SDS011;37654;51.262;17.058;2023-03-12T10:42:48;4.68;;;1.50;;
51560;SDS011;37654;51.262;17.058;2023-03-12T10:45:22;3.30;;;1.60;;
51560;SDS011;37654;51.262;17.058;2023-03-12T10:47:51;4.82;;;1.40;;
51560;SDS011;37654;51.262;17.058;2023-03-12T10:50:21;5.93;;;2.00;;
51560;SDS011;37654;51.262;17.058;2023-03-12T10:52:47;7.97;;;4.35;;
51560;SDS011;37654;51.262;17.058;2023-03-12T10:57:45;3.97;;;1.70;;
51560;SDS011;37654;51.262;17.058;2023-03-12T11:00:21;4.22;;;1.52;;
51560;SDS011;37654;51.262;17.058;2023-03-12T11:02:54;7.03;;;2.17;;
51560;SDS011;37654;51.262;17.058;2023-03-12T11:07:45;4.33;;;1.50;;
51560;SDS011;37654;51.262;17.058;2023-03-12T11:12:36;3.07;;;1.23;;
51560;SDS011;37654;51.262;17.058;2023-03-12T11:15:17;4.07;;;1.20;;
51560;SDS011;37654;51.262;17.058;2023-03-12T11:17:42;6.75;;;1.85;;
51560;SDS011;37654;51.262;17.058;2023-03-12T11:23:15;8.02;;;1.85;;
51560;SDS011;37654;51.262;17.058;2023-03-12T11:25:41;5.40;;;1.85;;
51560;SDS011;37654;51.262;17.058;2023-03-12T11:28:06;4.82;;;1.75;;
51560;SDS011;37654;51.262;17.058;2023-03-12T11:30:40;5.85;;;2.25;;
51560;SDS011;37654;51.262;17.058;2023-03-12T11:33:07;5.10;;;2.03;;
51560;SDS011;37654;51.262;17.058;2023-03-12T11:40:50;5.10;;;1.90;;
51560;SDS011;37654;51.262;17.058;2023-03-12T11:48:23;7.15;;;1.92;;
51560;SDS011;37654;51.262;17.058;2023-03-12T11:51:35;6.32;;;1.92;;
51560;SDS011;37654;51.262;17.058;2023-03-12T12:01:24;4.30;;;1.63;;
51560;SDS011;37654;51.262;17.058;2023-03-12T12:11:29;9.20;;;2.10;;
51560;SDS011;37654;51.262;17.058;2023-03-12T12:30:02;4.40;;;2.10;;
51560;SDS011;37654;51.262;17.058;2023-03-12T12:40:01;4.38;;;2.25;;
51560;SDS011;37654;51.262;17.058;2023-03-12T12:42:30;5.80;;;2.10;;
51560;SDS011;37654;51.262;17.058;2023-03-12T12:44:56;7.50;;;1.85;;
51560;SDS011;37654;51.262;17.058;2023-03-12T12:47:32;3.58;;;1.65;;
51560;SDS011;37654;51.262;17.058;2023-03-12T12:49:58;4.93;;;2.25;;
51560;SDS011;37654;51.262;17.058;2023-03-12T12:52:24;6.10;;;2.20;;
51560;SDS011;37654;51.262;17.058;2023-03-12T13:02:26;23.48;;;9.68;;
51560;SDS011;37654;51.262;17.058;2023-03-12T13:04:59;8.95;;;3.67;;
51560;SDS011;37654;51.262;17.058;2023-03-12T13:09:53;17.70;;;6.27;;
51560;SDS011;37654;51.262;17.058;2023-03-12T13:12:20;7.75;;;3.03;;
51560;SDS011;37654;51.262;17.058;2023-03-12T13:14:49;5.18;;;2.55;;
51560;SDS011;37654;51.262;17.058;2023-03-12T13:19:44;5.47;;;2.70;;
51560;SDS011;37654;51.262;17.058;2023-03-12T13:29:37;6.47;;;2.58;;
51560;SDS011;37654;51.262;17.058;2023-03-12T13:32:03;5.60;;;2.65;;
51560;SDS011;37654;51.262;17.058;2023-03-12T13:34:30;10.77;;;2.72;;
51560;SDS011;37654;51.262;17.058;2023-03-12T13:36:57;6.22;;;2.47;;
51560;SDS011;37654;51.262;17.058;2023-03-12T13:39:30;9.57;;;2.80;;
51560;SDS011;37654;51.262;17.058;2023-03-12T13:41:56;6.95;;;2.83;;
51560;SDS011;37654;51.262;17.058;2023-03-12T13:46:48;10.27;;;3.90;;
51560;SDS011;37654;51.262;17.058;2023-03-12T13:49:20;4.25;;;2.45;;
51560;SDS011;37654;51.262;17.058;2023-03-12T13:51:52;6.13;;;2.03;;
51560;SDS011;37654;51.262;17.058;2023-03-12T13:54:19;5.72;;;2.40;;
51560;SDS011;37654;51.262;17.058;2023-03-12T13:56:59;6.32;;;3.13;;
51560;SDS011;37654;51.262;17.058;2023-03-12T13:59:25;5.72;;;2.63;;
51560;SDS011;37654;51.262;17.058;2023-03-12T14:01:59;8.07;;;2.85;;
51560;SDS011;37654;51.262;17.058;2023-03-12T14:04:43;8.68;;;3.25;;
51560;SDS011;37654;51.262;17.058;2023-03-12T14:16:53;6.27;;;2.33;;
51560;SDS011;37654;51.262;17.058;2023-03-12T14:19:22;5.07;;;2.05;;
51560;SDS011;37654;51.262;17.058;2023-03-12T14:21:48;5.53;;;2.42;;
51560;SDS011;37654;51.262;17.058;2023-03-12T14:25:00;9.65;;;2.40;;
51560;SDS011;37654;51.262;17.058;2023-03-12T14:27:00;9.47;;;2.50;;
51560;SDS011;37654;51.262;17.058;2023-03-12T14:29:31;8.35;;;3.58;;
51560;SDS011;37654;51.262;17.058;2023-03-12T14:32:01;11.52;;;2.70;;
51560;SDS011;37654;51.262;17.058;2023-03-12T14:34:29;11.43;;;3.03;;
51560;SDS011;37654;51.262;17.058;2023-03-12T14:37:00;7.80;;;2.38;;
51560;SDS011;37654;51.262;17.058;2023-03-12T14:41:57;5.78;;;2.67;;
51560;SDS011;37654;51.262;17.058;2023-03-12T14:44:24;6.55;;;2.35;;
51560;SDS011;37654;51.262;17.058;2023-03-12T14:47:01;10.95;;;2.88;;
51560;SDS011;37654;51.262;17.058;2023-03-12T14:49:27;4.18;;;2.13;;
51560;SDS011;37654;51.262;17.058;2023-03-12T14:51:52;8.93;;;2.97;;
51560;SDS011;37654;51.262;17.058;2023-03-12T14:54:18;6.10;;;2.60;;
51560;SDS011;37654;51.262;17.058;2023-03-12T14:56:44;10.93;;;3.65;;
51560;SDS011;37654;51.262;17.058;2023-03-12T15:02:12;4.90;;;2.38;;
51560;SDS011;37654;51.262;17.058;2023-03-12T15:04:37;9.68;;;3.35;;
51560;SDS011;37654;51.262;17.058;2023-03-12T15:07:04;10.30;;;3.47;;
51560;SDS011;37654;51.262;17.058;2023-03-12T15:09:31;6.70;;;2.42;;
51560;SDS011;37654;51.262;17.058;2023-03-12T15:14:23;4.25;;;2.45;;
51560;SDS011;37654;51.262;17.058;2023-03-12T15:16:50;6.32;;;2.85;;
51560;SDS011;37654;51.262;17.058;2023-03-12T15:19:17;5.95;;;2.80;;
51560;SDS011;37654;51.262;17.058;2023-03-12T15:21:44;8.82;;;3.10;;
51560;SDS011;37654;51.262;17.058;2023-03-12T15:24:10;6.45;;;2.58;;
51560;SDS011;37654;51.262;17.058;2023-03-12T15:26:37;7.20;;;3.33;;
51560;SDS011;37654;51.262;17.058;2023-03-12T15:29:24;9.77;;;3.08;;
51560;SDS011;37654;51.262;17.058;2023-03-12T15:31:52;9.13;;;4.70;;
51560;SDS011;37654;51.262;17.058;2023-03-12T15:34:52;9.05;;;4.32;;
51560;SDS011;37654;51.262;17.058;2023-03-12T15:37:21;11.98;;;5.15;;
51560;SDS011;37654;51.262;17.058;2023-03-12T15:39:48;12.45;;;6.00;;
51560;SDS011;37654;51.262;17.058;2023-03-12T15:42:15;11.48;;;5.50;;
51560;SDS011;37654;51.262;17.058;2023-03-12T15:47:21;10.60;;;5.10;;
51560;SDS011;37654;51.262;17.058;2023-03-12T15:49:51;12.15;;;4.88;;
51560;SDS011;37654;51.262;17.058;2023-03-12T15:54:43;10.50;;;4.30;;
51560;SDS011;37654;51.262;17.058;2023-03-12T15:57:23;9.82;;;4.22;;
51560;SDS011;37654;51.262;17.058;2023-03-12T15:59:49;11.90;;;5.10;;
51560;SDS011;37654;51.262;17.058;2023-03-12T16:02:37;11.88;;;6.05;;
51560;SDS011;37654;51.262;17.058;2023-03-12T16:05:03;16.25;;;7.35;;
51560;SDS011;37654;51.262;17.058;2023-03-12T16:07:29;13.57;;;7.15;;
51560;SDS011;37654;51.262;17.058;2023-03-12T16:09:54;18.00;;;7.20;;
51560;SDS011;37654;51.262;17.058;2023-03-12T16:12:20;12.25;;;5.53;;
51560;SDS011;37654;51.262;17.058;2023-03-12T16:14:45;9.88;;;5.22;;
51560;SDS011;37654;51.262;17.058;2023-03-12T16:17:13;10.23;;;4.85;;
51560;SDS011;37654;51.262;17.058;2023-03-12T16:19:41;10.70;;;4.47;;
51560;SDS011;37654;51.262;17.058;2023-03-12T16:22:07;11.93;;;5.53;;
51560;SDS011;37654;51.262;17.058;2023-03-12T16:24:32;10.00;;;5.35;;
51560;SDS011;37654;51.262;17.058;2023-03-12T16:26:57;12.85;;;4.60;;
51560;SDS011;37654;51.262;17.058;2023-03-12T16:29:26;10.70;;;4.30;;
51560;SDS011;37654;51.262;17.058;2023-03-12T16:31:54;9.07;;;4.10;;
51560;SDS011;37654;51.262;17.058;2023-03-12T16:34:19;14.65;;;6.72;;
51560;SDS011;37654;51.262;17.058;2023-03-12T16:36:44;16.38;;;7.22;;
51560;SDS011;37654;51.262;17.058;2023-03-12T16:39:10;12.38;;;4.10;;
51560;SDS011;37654;51.262;17.058;2023-03-12T16:41:35;7.30;;;3.28;;
51560;SDS011;37654;51.262;17.058;2023-03-12T16:44:00;6.38;;;3.35;;
51560;SDS011;37654;51.262;17.058;2023-03-12T16:46:28;10.55;;;4.28;;